createdAt,value
2023-02-25T00:00:40.580Z,25.23
2023-02-25T00:01:41.714Z,25.23
2023-02-25T00:02:40.612Z,25.23
2023-02-25T00:03:40.620Z,25.23
2023-02-25T00:04:40.553Z,25.24
2023-02-25T00:05:40.544Z,25.21
2023-02-25T00:06:40.556Z,25.23
2023-02-25T00:55:29.674Z,25.19
2023-02-25T00:56:30.590Z,25.20
2023-02-25T00:57:30.538Z,25.19
2023-02-25T00:58:30.496Z,25.17
2023-02-25T00:59:30.482Z,25.20
2023-02-25T01:00:32.648Z,25.19
2023-02-25T01:01:30.514Z,25.19
2023-02-25T01:02:30.362Z,25.17
2023-02-25T01:03:30.299Z,25.19
2023-02-25T01:04:30.253Z,25.19
2023-02-25T01:05:30.214Z,25.20
2023-02-25T01:06:30.240Z,25.20
2023-02-25T01:07:30.126Z,25.20
2023-02-25T01:08:30.101Z,25.17
2023-02-25T01:09:30.056Z,25.20
2023-02-25T01:10:30.017Z,25.21
2023-02-25T01:11:30.004Z,25.20
2023-02-25T01:12:29.939Z,25.19
2023-02-25T01:13:29.955Z,25.19
2023-02-25T01:14:29.850Z,25.19
2023-02-25T01:15:29.825Z,25.20
2023-02-25T01:16:29.879Z,25.20
2023-02-25T01:17:29.747Z,25.21
2023-02-25T01:18:29.695Z,25.21
2023-02-25T01:19:29.647Z,25.21
2023-02-25T01:20:29.609Z,25.20
2023-02-25T01:21:29.567Z,25.21
2023-02-25T01:22:29.528Z,25.21
2023-02-25T01:23:29.500Z,25.21
2023-02-25T01:24:29.449Z,25.17
2023-02-25T01:25:29.455Z,25.24
2023-02-25T01:26:29.380Z,25.21
2023-02-25T01:27:29.371Z,25.21
2023-02-25T01:28:29.301Z,25.23
2023-02-25T01:29:29.256Z,25.23
2023-02-25T01:30:29.222Z,25.24
2023-02-25T01:31:29.801Z,25.21
2023-02-25T01:32:29.306Z,25.21
2023-02-25T01:33:29.091Z,25.20
2023-02-25T01:34:29.075Z,25.21
2023-02-25T01:35:29.002Z,25.20
2023-02-25T01:36:28.950Z,25.21
2023-02-25T01:37:28.911Z,25.21
2023-02-25T01:38:28.872Z,25.21
2023-02-25T01:39:28.847Z,25.23
2023-02-25T01:40:28.801Z,25.20
2023-02-25T01:41:28.803Z,25.21
2023-02-25T01:42:28.715Z,25.20
2023-02-25T01:43:28.718Z,25.19
2023-02-25T01:44:28.646Z,25.19
2023-02-25T01:45:28.712Z,25.17
2023-02-25T01:46:28.589Z,25.19
2023-02-25T01:47:28.525Z,25.20
2023-02-25T01:48:28.482Z,25.19
2023-02-25T01:49:28.451Z,25.17
2023-02-25T01:50:28.420Z,25.19
2023-02-25T01:51:28.389Z,25.17
2023-02-25T01:52:28.340Z,25.17
2023-02-25T01:53:27.302Z,25.16
2023-02-25T01:54:28.258Z,25.16
2023-02-25T01:55:28.219Z,25.14
2023-02-25T01:56:28.185Z,25.14
2023-02-25T01:57:28.143Z,25.14
2023-02-25T01:58:28.108Z,25.13
2023-02-25T01:59:28.093Z,25.16
2023-02-25T02:00:28.093Z,25.13
2023-02-25T02:01:27.996Z,25.13
2023-02-25T02:02:28.054Z,25.14
2023-02-25T02:03:27.921Z,25.17
2023-02-25T02:04:27.876Z,25.12
2023-02-25T02:05:27.840Z,25.12
2023-02-25T02:06:27.801Z,25.12
2023-02-25T02:07:27.765Z,25.14
2023-02-25T02:08:27.730Z,25.14
2023-02-25T02:09:27.690Z,25.14
2023-02-25T02:10:27.629Z,25.16
2023-02-25T02:11:27.594Z,25.14
2023-02-25T02:12:27.579Z,25.14
2023-02-25T02:13:27.508Z,25.14
2023-02-25T02:14:27.489Z,25.14
2023-02-25T02:15:27.459Z,25.16
2023-02-25T02:16:27.537Z,25.13
2023-02-25T02:17:30.015Z,25.14
2023-02-25T02:18:27.307Z,25.14
2023-02-25T02:19:27.234Z,25.16
2023-02-25T02:20:27.180Z,25.14
2023-02-25T02:21:27.133Z,25.17
2023-02-25T02:22:27.087Z,25.14
2023-02-25T02:23:27.049Z,25.17
2023-02-25T02:24:27.032Z,25.16
2023-02-25T02:25:26.964Z,25.16
2023-02-25T02:26:26.914Z,25.17
2023-02-25T02:27:26.882Z,25.17
2023-02-25T02:28:26.830Z,25.13
2023-02-25T02:29:26.780Z,25.16
2023-02-25T02:30:26.731Z,25.14
2023-02-25T02:31:26.785Z,25.16
2023-02-25T02:32:26.894Z,25.16
2023-02-25T02:33:26.612Z,25.17
2023-02-25T02:34:26.641Z,25.17
2023-02-25T02:35:26.526Z,25.17
2023-02-25T02:36:26.488Z,25.17
2023-02-25T02:37:26.448Z,25.14
2023-02-25T02:38:26.404Z,25.16
2023-02-25T02:39:26.352Z,25.16
2023-02-25T02:40:26.310Z,25.16
2023-02-25T02:41:26.271Z,25.19
2023-02-25T02:42:26.231Z,25.19
2023-02-25T02:43:26.193Z,25.16
2023-02-25T02:44:26.157Z,25.16
2023-02-25T02:45:26.123Z,25.14
2023-02-25T02:46:26.064Z,25.17
2023-02-25T02:47:26.043Z,25.19
2023-02-25T02:48:25.976Z,25.19
2023-02-25T02:49:25.938Z,25.19
2023-02-25T02:50:25.900Z,25.19
2023-02-25T02:51:25.879Z,25.19
2023-02-25T02:52:25.842Z,25.20
2023-02-25T02:53:25.820Z,25.19
2023-02-25T02:54:25.752Z,25.16
2023-02-25T02:55:25.705Z,25.19
2023-02-25T02:56:25.668Z,25.17
2023-02-25T02:57:25.619Z,25.19
2023-02-25T02:58:25.577Z,25.17
2023-02-25T02:59:25.626Z,25.17
2023-02-25T03:00:25.473Z,25.19
2023-02-25T03:01:25.515Z,25.19
2023-02-25T03:02:25.396Z,25.17
2023-02-25T03:03:26.321Z,25.17
2023-02-25T03:04:25.313Z,25.17
2023-02-25T03:05:25.273Z,25.17
2023-02-25T03:06:25.578Z,25.16
2023-02-25T03:07:25.192Z,25.17
2023-02-25T03:08:25.161Z,25.17
2023-02-25T03:09:25.100Z,25.17
2023-02-25T03:10:25.054Z,25.17
2023-02-25T03:11:25.010Z,25.16
2023-02-25T03:12:24.995Z,25.17
2023-02-25T03:13:24.939Z,25.17
2023-02-25T03:14:24.894Z,25.17
2023-02-25T03:15:24.859Z,25.17
2023-02-25T03:16:25.375Z,25.17
2023-02-25T03:17:24.772Z,25.17
2023-02-25T03:18:24.729Z,25.17
2023-02-25T03:19:24.709Z,25.19
2023-02-25T03:20:24.644Z,25.17
2023-02-25T03:21:24.585Z,25.17
2023-02-25T03:22:24.544Z,25.19
2023-02-25T03:23:24.515Z,25.19
2023-02-25T03:24:24.549Z,25.19
2023-02-25T03:25:24.517Z,25.19
2023-02-25T03:26:24.759Z,25.19
2023-02-25T03:27:24.337Z,25.20
2023-02-25T03:28:24.293Z,25.20
2023-02-25T03:29:24.254Z,25.19
2023-02-25T03:30:24.287Z,25.17
2023-02-25T03:31:24.241Z,25.19
2023-02-25T03:32:24.183Z,25.20
2023-02-25T03:33:24.052Z,25.19
2023-02-25T03:34:24.006Z,25.19
2023-02-25T03:35:23.991Z,25.19
2023-02-25T03:36:24.353Z,25.17
2023-02-25T03:37:23.869Z,25.17
2023-02-25T03:38:23.820Z,25.17
2023-02-25T03:39:23.776Z,25.20
2023-02-25T03:40:22.752Z,25.19
2023-02-25T03:41:23.702Z,25.17
2023-02-25T03:42:23.665Z,25.20
2023-02-25T03:43:23.619Z,25.20
2023-02-25T03:44:23.579Z,25.20
2023-02-25T03:45:23.539Z,25.17
2023-02-25T03:46:23.960Z,25.19
2023-02-25T03:47:23.443Z,25.17
2023-02-25T03:48:23.404Z,25.19
2023-02-25T03:49:23.346Z,25.20
2023-02-25T03:50:23.302Z,25.19
2023-02-25T03:51:23.286Z,25.19
2023-02-25T03:52:23.203Z,25.19
2023-02-25T03:53:23.146Z,25.20
2023-02-25T03:54:23.100Z,25.17
2023-02-25T03:55:23.032Z,25.20
2023-02-25T03:56:23.338Z,25.19
2023-02-25T03:57:22.937Z,25.19
2023-02-25T03:58:22.871Z,25.21
2023-02-25T03:59:22.817Z,25.19
2023-02-25T04:00:22.977Z,25.19
2023-02-25T04:01:22.737Z,25.19
2023-02-25T04:02:22.723Z,25.19
2023-02-25T04:03:22.616Z,25.19
2023-02-25T04:04:22.601Z,25.19
2023-02-25T04:05:22.522Z,25.19
2023-02-25T04:06:22.779Z,25.19
2023-02-25T04:07:22.466Z,25.19
2023-02-25T04:08:22.387Z,25.20
2023-02-25T04:09:22.348Z,25.17
2023-02-25T04:10:22.292Z,25.23
2023-02-25T04:11:22.265Z,25.19
2023-02-25T04:12:22.213Z,25.19
2023-02-25T04:13:22.162Z,25.21
2023-02-25T04:14:22.109Z,25.23
2023-02-25T04:15:22.062Z,25.20
2023-02-25T04:16:22.373Z,25.20
2023-02-25T04:17:21.941Z,25.21
2023-02-25T04:18:21.889Z,25.21
2023-02-25T04:19:21.860Z,25.20
2023-02-25T04:20:21.800Z,25.21
2023-02-25T04:21:21.745Z,25.19
2023-02-25T04:22:21.714Z,25.20
2023-02-25T04:23:21.672Z,25.19
2023-02-25T04:24:21.665Z,25.16
2023-02-25T04:25:21.571Z,25.19
2023-02-25T04:26:21.812Z,25.17
2023-02-25T04:27:21.506Z,25.19
2023-02-25T04:28:21.461Z,25.23
2023-02-25T04:29:21.418Z,25.19
2023-02-25T04:30:21.385Z,25.19
2023-02-25T04:31:21.497Z,25.20
2023-02-25T04:32:21.449Z,25.19
2023-02-25T04:33:21.252Z,25.20
2023-02-25T04:34:21.212Z,25.19
2023-02-25T04:35:21.174Z,25.17
2023-02-25T04:36:21.355Z,25.19
2023-02-25T04:37:21.082Z,25.20
2023-02-25T04:38:21.048Z,25.20
2023-02-25T04:39:21.033Z,25.19
2023-02-25T04:40:20.972Z,25.19
2023-02-25T04:41:20.926Z,25.20
2023-02-25T04:42:20.878Z,25.19
2023-02-25T04:43:20.825Z,25.20
2023-02-25T04:44:20.806Z,25.16
2023-02-25T04:45:20.737Z,25.20
2023-02-25T04:46:21.092Z,25.21
2023-02-25T04:47:20.662Z,25.19
2023-02-25T04:48:20.601Z,25.20
2023-02-25T04:49:20.596Z,25.20
2023-02-25T04:50:20.518Z,25.19
2023-02-25T04:51:20.471Z,25.20
2023-02-25T04:52:20.428Z,25.20
2023-02-25T04:53:20.398Z,25.19
2023-02-25T04:54:20.336Z,25.19
2023-02-25T04:55:20.325Z,25.17
2023-02-25T04:56:20.262Z,25.21
2023-02-25T04:57:20.176Z,25.20
2023-02-25T04:58:20.124Z,25.20
2023-02-25T04:59:20.109Z,25.19
2023-02-25T05:00:20.034Z,25.19
2023-02-25T05:01:20.170Z,25.20
2023-02-25T05:02:19.937Z,25.20
2023-02-25T05:03:19.904Z,25.17
2023-02-25T05:04:19.877Z,25.21
2023-02-25T05:05:19.830Z,25.21
2023-02-25T05:06:19.826Z,25.20
2023-02-25T05:07:19.694Z,25.21
2023-02-25T05:08:19.691Z,25.21
2023-02-25T05:09:19.609Z,25.21
2023-02-25T05:10:19.607Z,25.21
2023-02-25T05:11:19.535Z,25.21
2023-02-25T05:12:19.461Z,25.20
2023-02-25T05:13:19.398Z,25.21
2023-02-25T05:14:19.361Z,25.20
2023-02-25T05:15:19.307Z,25.23
2023-02-25T05:16:19.379Z,25.21
2023-02-25T05:17:19.209Z,25.23
2023-02-25T05:18:19.182Z,25.21
2023-02-25T05:19:19.160Z,25.23
2023-02-25T05:20:19.201Z,25.21
2023-02-25T05:21:19.048Z,25.23
2023-02-25T05:22:19.003Z,25.21
2023-02-25T05:23:18.961Z,25.19
2023-02-25T05:24:18.962Z,25.21
2023-02-25T05:25:18.878Z,25.20
2023-02-25T05:26:18.827Z,25.21
2023-02-25T05:27:18.795Z,25.21
2023-02-25T05:28:18.716Z,25.21
2023-02-25T05:29:18.705Z,25.21
2023-02-25T05:30:18.663Z,25.21
2023-02-25T05:31:18.680Z,25.21
2023-02-25T05:32:18.662Z,25.23
2023-02-25T05:33:18.489Z,25.24
2023-02-25T05:34:18.436Z,25.23
2023-02-25T05:35:18.411Z,25.21
2023-02-25T05:36:18.323Z,25.21
2023-02-25T05:37:18.272Z,25.23
2023-02-25T05:38:18.232Z,25.24
2023-02-25T05:39:18.175Z,25.23
2023-02-25T05:40:18.156Z,25.21
2023-02-25T05:41:18.088Z,25.21
2023-02-25T05:42:18.039Z,25.23
2023-02-25T05:43:18.012Z,25.20
2023-02-25T05:44:17.948Z,25.20
2023-02-25T05:45:18.005Z,25.21
2023-02-25T05:46:17.922Z,25.23
2023-02-25T05:47:17.807Z,25.21
2023-02-25T05:48:17.768Z,25.23
2023-02-25T05:49:17.673Z,25.20
2023-02-25T05:50:17.640Z,25.20
2023-02-25T05:51:17.582Z,25.21
2023-02-25T05:52:17.526Z,25.20
2023-02-25T05:53:17.481Z,25.20
2023-02-25T05:54:17.446Z,25.20
2023-02-25T05:55:17.418Z,25.21
2023-02-25T05:56:17.339Z,25.23
2023-02-25T05:57:17.290Z,25.20
2023-02-25T05:58:17.248Z,25.21
2023-02-25T05:59:17.225Z,25.20
2023-02-25T06:00:17.145Z,25.21
2023-02-25T06:01:17.140Z,25.20
2023-02-25T06:02:17.128Z,25.21
2023-02-25T06:03:17.042Z,25.21
2023-02-25T06:04:16.970Z,25.23
2023-02-25T06:05:16.961Z,25.23
2023-02-25T06:06:16.916Z,25.20
2023-02-25T06:07:16.846Z,25.20
2023-02-25T06:08:16.792Z,25.20
2023-02-25T06:09:16.748Z,25.19
2023-02-25T06:10:16.703Z,25.21
2023-02-25T06:11:16.682Z,25.19
2023-02-25T06:12:16.620Z,25.20
2023-02-25T06:13:16.576Z,25.19
2023-02-25T06:14:16.540Z,25.20
2023-02-25T06:15:16.519Z,25.20
2023-02-25T06:16:16.512Z,25.20
2023-02-25T06:17:16.420Z,25.21
2023-02-25T06:18:16.378Z,25.21
2023-02-25T06:19:16.330Z,25.20
2023-02-25T06:20:16.284Z,25.20
2023-02-25T06:21:16.261Z,25.23
2023-02-25T06:22:16.185Z,25.23
2023-02-25T06:23:16.143Z,25.21
2023-02-25T06:24:16.097Z,25.19
2023-02-25T06:25:16.071Z,25.23
2023-02-25T06:26:16.039Z,25.20
2023-02-25T06:27:15.952Z,25.20
2023-02-25T06:28:15.911Z,25.20
2023-02-25T06:29:15.868Z,25.21
2023-02-25T06:30:15.816Z,25.20
2023-02-25T06:31:15.824Z,25.21
2023-02-25T06:32:15.909Z,25.21
2023-02-25T06:33:15.675Z,25.24
2023-02-25T06:34:15.712Z,25.20
2023-02-25T06:35:15.589Z,25.21
2023-02-25T06:36:15.784Z,25.21
2023-02-25T06:37:16.472Z,25.21
2023-02-25T06:38:15.450Z,25.19
2023-02-25T06:39:15.408Z,25.21
2023-02-25T06:40:15.371Z,25.20
2023-02-25T06:41:15.414Z,25.21
2023-02-25T06:42:15.292Z,25.19
2023-02-25T06:43:15.288Z,25.21
2023-02-25T06:44:15.897Z,25.20
2023-02-25T06:45:15.145Z,25.19
2023-02-25T06:46:15.246Z,25.19
2023-02-25T06:47:15.114Z,25.20
2023-02-25T06:48:15.010Z,25.20
2023-02-25T06:49:14.976Z,25.23
2023-02-25T06:50:14.938Z,25.21
2023-02-25T06:51:14.899Z,25.20
2023-02-25T06:52:14.854Z,25.21
2023-02-25T06:53:14.807Z,25.21
2023-02-25T06:54:14.757Z,23.81
2023-02-25T06:55:14.722Z,22.90
2023-02-25T06:56:14.697Z,21.46
2023-02-25T06:57:14.671Z,20.84
2023-02-25T06:58:15.680Z,19.29
2023-02-25T06:59:14.675Z,18.79
2023-02-25T07:00:14.671Z,19.16
2023-02-25T07:01:14.702Z,19.44
2023-02-25T07:02:14.680Z,19.75
2023-02-25T07:03:14.727Z,20.09
2023-02-25T07:04:14.744Z,20.39
2023-02-25T07:05:14.668Z,20.76
2023-02-25T07:06:14.670Z,21.07
2023-02-25T07:07:14.640Z,21.41
2023-02-25T07:08:14.649Z,21.69
2023-02-25T07:09:14.625Z,21.96
2023-02-25T07:10:14.566Z,22.21
2023-02-25T07:11:15.301Z,22.49
2023-02-25T07:12:14.513Z,22.71
2023-02-25T07:13:14.498Z,22.91
2023-02-25T07:14:14.448Z,23.13
2023-02-25T07:15:14.422Z,23.34
2023-02-25T07:16:14.552Z,23.52
2023-02-25T07:17:14.349Z,23.67
2023-02-25T07:18:14.374Z,23.84
2023-02-25T07:19:14.288Z,23.99
2023-02-25T07:20:14.229Z,24.13
2023-02-25T07:21:14.181Z,24.24
2023-02-25T07:22:14.142Z,24.34
2023-02-25T07:23:14.128Z,24.47
2023-02-25T07:24:14.054Z,24.55
2023-02-25T07:25:14.112Z,24.64
2023-02-25T07:26:13.960Z,24.74
2023-02-25T07:27:13.912Z,24.82
2023-02-25T07:28:13.887Z,24.88
2023-02-25T07:29:13.856Z,24.95
2023-02-25T07:30:13.764Z,25.00
2023-02-25T07:31:13.884Z,25.07
2023-02-25T07:32:13.926Z,25.14
2023-02-25T07:33:13.747Z,25.17
2023-02-25T07:34:13.565Z,25.26
2023-02-25T07:35:13.535Z,25.29
2023-02-25T07:36:13.467Z,25.31
2023-02-25T07:37:13.415Z,25.37
2023-02-25T07:38:13.377Z,25.41
2023-02-25T07:39:13.327Z,25.42
2023-02-25T07:40:13.340Z,25.45
2023-02-25T07:41:13.233Z,25.48
2023-02-25T07:42:13.178Z,25.51
2023-02-25T07:43:13.128Z,25.51
2023-02-25T07:44:13.080Z,25.57
2023-02-25T07:45:13.033Z,25.57
2023-02-25T07:46:13.062Z,25.58
2023-02-25T07:47:12.937Z,25.61
2023-02-25T07:48:12.886Z,25.61
2023-02-25T07:49:12.835Z,25.61
2023-02-25T07:50:13.196Z,25.68
2023-02-25T07:51:12.780Z,25.69
2023-02-25T07:52:12.660Z,25.71
2023-02-25T07:53:12.606Z,25.72
2023-02-25T07:54:12.549Z,25.72
2023-02-25T07:55:12.504Z,25.62
2023-02-25T07:56:12.544Z,25.02
2023-02-25T07:57:12.419Z,24.01
2023-02-25T07:58:12.390Z,23.04
2023-02-25T07:59:12.349Z,22.47
2023-02-25T08:00:12.319Z,21.35
2023-02-25T08:01:12.277Z,20.83
2023-02-25T08:02:12.271Z,19.93
2023-02-25T08:03:12.278Z,19.78
2023-02-25T08:04:12.335Z,19.66
2023-02-25T08:05:12.243Z,19.29
2023-02-25T08:06:12.230Z,19.10
2023-02-25T08:07:12.241Z,19.19
2023-02-25T08:08:12.257Z,18.98
2023-02-25T08:09:12.359Z,18.74
2023-02-25T08:10:12.252Z,19.09
2023-02-25T08:11:12.282Z,19.34
2023-02-25T08:12:12.257Z,19.61
2023-02-25T08:13:12.312Z,19.92
2023-02-25T08:14:12.271Z,20.24
2023-02-25T08:15:12.263Z,20.58
2023-02-25T08:16:12.293Z,20.89
2023-02-25T08:17:12.248Z,21.21
2023-02-25T08:18:12.241Z,21.49
2023-02-25T08:19:12.256Z,21.79
2023-02-25T08:20:12.211Z,22.03
2023-02-25T08:21:12.182Z,22.29
2023-02-25T08:22:12.166Z,22.50
2023-02-25T08:23:12.158Z,22.77
2023-02-25T08:24:12.078Z,22.94
2023-02-25T08:25:12.047Z,23.16
2023-02-25T08:26:12.017Z,23.36
2023-02-25T08:27:11.999Z,23.54
2023-02-25T08:28:11.966Z,23.70
2023-02-25T08:29:11.937Z,23.87
2023-02-25T08:30:11.888Z,24.01
2023-02-25T08:31:12.039Z,24.17
2023-02-25T08:32:12.029Z,24.26
2023-02-25T08:33:11.757Z,24.41
2023-02-25T08:34:11.751Z,24.51
2023-02-25T08:35:11.682Z,24.61
2023-02-25T08:36:11.647Z,24.72
2023-02-25T08:37:11.633Z,24.81
2023-02-25T08:38:11.565Z,24.88
2023-02-25T08:39:11.562Z,24.93
2023-02-25T08:40:11.470Z,25.02
2023-02-25T08:41:11.438Z,25.09
2023-02-25T08:42:11.377Z,25.13
2023-02-25T08:43:11.331Z,25.17
2023-02-25T08:44:11.295Z,25.21
2023-02-25T08:45:11.256Z,25.26
2023-02-25T08:46:11.316Z,25.33
2023-02-25T08:47:11.131Z,25.34
2023-02-25T08:48:11.071Z,25.40
2023-02-25T08:49:11.033Z,25.38
2023-02-25T08:50:10.981Z,25.41
2023-02-25T08:51:10.928Z,25.47
2023-02-25T08:52:10.894Z,25.49
2023-02-25T08:53:10.830Z,25.54
2023-02-25T08:54:10.784Z,25.57
2023-02-25T08:55:10.770Z,25.57
2023-02-25T08:56:10.694Z,25.60
2023-02-25T08:57:10.655Z,25.62
2023-02-25T08:58:10.616Z,25.68
2023-02-25T08:59:10.579Z,25.68
2023-02-25T09:00:10.498Z,25.71
2023-02-25T09:01:10.532Z,25.73
2023-02-25T09:02:10.931Z,25.73
2023-02-25T09:03:10.365Z,25.78
2023-02-25T09:04:10.481Z,25.75
2023-02-25T09:05:10.242Z,25.75
2023-02-25T09:06:10.195Z,25.76
2023-02-25T09:07:10.145Z,25.79
2023-02-25T09:08:10.085Z,25.78
2023-02-25T09:09:10.040Z,25.78
2023-02-25T09:10:09.978Z,25.80
2023-02-25T09:11:09.943Z,25.79
2023-02-25T09:12:09.865Z,25.82
2023-02-25T09:13:09.826Z,25.80
2023-02-25T09:14:09.766Z,25.85
2023-02-25T09:15:09.699Z,25.86
2023-02-25T09:16:09.689Z,25.86
2023-02-25T09:17:09.583Z,25.88
2023-02-25T09:18:09.557Z,25.92
2023-02-25T09:19:09.466Z,25.88
2023-02-25T09:20:09.417Z,25.90
2023-02-25T09:21:09.354Z,25.90
2023-02-25T09:22:09.317Z,25.93
2023-02-25T09:23:09.246Z,25.89
2023-02-25T09:24:09.193Z,25.89
2023-02-25T09:25:09.137Z,25.95
2023-02-25T09:26:09.081Z,25.96
2023-02-25T09:27:09.042Z,25.96
2023-02-25T09:28:08.966Z,25.96
2023-02-25T09:29:08.919Z,25.95
2023-02-25T09:30:08.887Z,25.95
2023-02-25T09:31:08.844Z,25.93
2023-02-25T09:32:08.919Z,25.96
2023-02-25T09:33:08.914Z,25.96
2023-02-25T09:34:08.644Z,25.93
2023-02-25T09:35:08.607Z,25.95
2023-02-25T09:36:08.727Z,25.95
2023-02-25T09:37:08.485Z,25.96
2023-02-25T09:38:08.429Z,25.95
2023-02-25T09:39:08.380Z,25.96
2023-02-25T09:40:08.327Z,25.96
2023-02-25T09:41:08.290Z,25.97
2023-02-25T09:42:08.215Z,25.95
2023-02-25T09:43:08.189Z,25.96
2023-02-25T09:44:08.101Z,25.96
2023-02-25T09:45:08.038Z,25.97
2023-02-25T09:46:08.016Z,25.97
2023-02-25T09:47:07.941Z,25.96
2023-02-25T09:48:07.865Z,26.00
2023-02-25T09:49:07.807Z,25.99
2023-02-25T09:50:07.985Z,26.01
2023-02-25T09:51:07.696Z,26.03
2023-02-25T09:52:07.627Z,26.01
2023-02-25T09:53:07.693Z,26.01
2023-02-25T09:54:08.563Z,26.03
2023-02-25T09:55:07.441Z,26.01
2023-02-25T09:56:07.389Z,26.03
2023-02-25T09:57:07.338Z,26.03
2023-02-25T09:58:07.289Z,26.03
2023-02-25T09:59:07.246Z,26.01
2023-02-25T10:00:07.167Z,26.00
2023-02-25T10:01:07.151Z,26.01
2023-02-25T10:02:07.141Z,26.03
2023-02-25T10:03:07.193Z,26.03
2023-02-25T10:04:06.943Z,26.04
2023-02-25T10:05:06.894Z,26.04
2023-02-25T10:06:06.820Z,26.07
2023-02-25T10:07:06.775Z,26.06
2023-02-25T10:08:06.702Z,26.06
2023-02-25T10:09:06.651Z,26.06
2023-02-25T10:10:06.608Z,26.06
2023-02-25T10:11:06.558Z,26.04
2023-02-25T10:12:06.508Z,26.06
2023-02-25T10:13:06.415Z,26.06
2023-02-25T10:14:06.363Z,26.04
2023-02-25T10:15:06.350Z,26.04
2023-02-25T10:16:06.265Z,26.10
2023-02-25T10:17:06.263Z,26.08
2023-02-25T10:18:06.154Z,26.08
2023-02-25T10:19:06.103Z,26.07
2023-02-25T10:20:06.085Z,26.08
2023-02-25T10:21:06.013Z,26.08
2023-02-25T10:22:05.967Z,26.10
2023-02-25T10:23:05.891Z,26.08
2023-02-25T10:24:05.832Z,26.08
2023-02-25T10:25:05.775Z,26.10
2023-02-25T10:26:05.720Z,26.10
2023-02-25T10:27:05.669Z,26.12
2023-02-25T10:28:05.619Z,26.10
2023-02-25T10:29:05.582Z,26.12
2023-02-25T10:30:05.501Z,26.16
2023-02-25T10:31:05.652Z,26.19
2023-02-25T10:32:05.658Z,26.20
2023-02-25T10:33:05.340Z,26.17
2023-02-25T10:34:05.270Z,26.19
2023-02-25T10:35:05.222Z,26.19
2023-02-25T10:36:05.171Z,26.17
2023-02-25T10:37:05.112Z,26.21
2023-02-25T10:38:05.072Z,26.21
2023-02-25T10:39:05.004Z,26.19
2023-02-25T10:40:04.950Z,26.20
2023-02-25T10:41:04.957Z,26.16
2023-02-25T10:42:04.828Z,26.16
2023-02-25T10:43:04.781Z,26.14
2023-02-25T10:44:04.730Z,26.13
2023-02-25T10:45:04.686Z,26.13
2023-02-25T10:46:04.736Z,26.16
2023-02-25T10:47:04.599Z,26.13
2023-02-25T10:48:04.510Z,26.16
2023-02-25T10:49:04.468Z,26.16
2023-02-25T10:50:04.406Z,26.16
2023-02-25T10:51:04.359Z,26.14
2023-02-25T10:52:04.321Z,26.16
2023-02-25T10:53:04.235Z,26.17
2023-02-25T10:54:04.181Z,26.14
2023-02-25T10:55:04.105Z,26.16
2023-02-25T10:56:04.055Z,26.16
2023-02-25T10:57:03.992Z,26.13
2023-02-25T10:58:03.924Z,26.17
2023-02-25T10:59:03.853Z,26.17
2023-02-25T11:00:03.787Z,26.19
2023-02-25T11:01:03.768Z,26.19
2023-02-25T11:02:03.672Z,26.20
2023-02-25T11:03:03.636Z,26.21
2023-02-25T11:04:03.543Z,26.21
2023-02-25T11:05:03.491Z,26.20
2023-02-25T11:06:03.427Z,26.23
2023-02-25T11:07:03.363Z,26.23
2023-02-25T11:08:03.299Z,26.26
2023-02-25T11:09:03.213Z,26.27
2023-02-25T11:10:03.158Z,26.24
2023-02-25T11:11:03.103Z,26.24
2023-02-25T11:12:03.032Z,26.26
2023-02-25T11:13:02.974Z,26.23
2023-02-25T11:14:02.933Z,26.21
2023-02-25T11:15:02.849Z,26.24
2023-02-25T11:16:02.827Z,26.24
2023-02-25T11:17:02.727Z,26.21
2023-02-25T11:18:02.666Z,26.23
2023-02-25T11:19:02.618Z,26.23
2023-02-25T11:20:02.530Z,26.23
2023-02-25T11:21:02.474Z,26.24
2023-02-25T11:22:02.412Z,26.24
2023-02-25T11:23:02.344Z,26.23
2023-02-25T11:24:02.286Z,26.21
2023-02-25T11:25:02.234Z,26.21
2023-02-25T11:26:02.164Z,26.23
2023-02-25T11:27:02.104Z,26.24
2023-02-25T11:28:02.030Z,26.23
2023-02-25T11:29:01.960Z,26.24
2023-02-25T11:30:01.953Z,26.26
2023-02-25T11:31:01.991Z,26.24
2023-02-25T11:32:01.917Z,26.20
2023-02-25T11:33:01.700Z,26.23
2023-02-25T11:34:01.646Z,26.24
2023-02-25T11:35:01.592Z,26.26
2023-02-25T11:36:01.526Z,26.27
2023-02-25T11:37:01.443Z,26.26
2023-02-25T11:38:01.376Z,26.26
2023-02-25T11:39:01.317Z,26.24
2023-02-25T11:40:01.256Z,26.30
2023-02-25T11:41:01.209Z,26.27
2023-02-25T11:42:01.152Z,26.30
2023-02-25T11:43:01.099Z,26.31
2023-02-25T11:44:03.087Z,26.31
2023-02-25T11:45:00.988Z,26.32
2023-02-25T11:46:00.995Z,26.34
2023-02-25T11:47:00.870Z,26.32
2023-02-25T11:48:00.796Z,26.32
2023-02-25T11:49:00.728Z,26.32
2023-02-25T11:50:00.662Z,26.35
2023-02-25T11:51:00.626Z,26.37
2023-02-25T11:52:00.533Z,26.34
2023-02-25T11:53:00.468Z,26.37
2023-02-25T11:54:00.409Z,26.34
2023-02-25T11:55:00.337Z,26.35
2023-02-25T11:56:00.505Z,26.35
2023-02-25T11:57:00.230Z,26.32
2023-02-25T11:58:00.177Z,26.32
2023-02-25T11:59:00.108Z,26.31
2023-02-25T12:00:00.058Z,26.30
2023-02-25T12:00:59.993Z,26.27
2023-02-25T12:01:59.925Z,26.26
2023-02-25T12:02:59.886Z,26.24
2023-02-25T12:04:01.184Z,26.27
2023-02-25T12:04:59.758Z,26.21
2023-02-25T12:05:59.736Z,26.20
2023-02-25T12:06:59.664Z,26.20
2023-02-25T12:08:12.805Z,26.21
2023-02-25T12:08:59.536Z,26.19
2023-02-25T12:09:59.471Z,26.20
2023-02-25T12:10:59.429Z,26.19
2023-02-25T12:11:59.364Z,26.19
2023-02-25T12:12:59.305Z,26.17
2023-02-25T12:13:59.334Z,26.17
2023-02-25T12:14:59.189Z,26.13
2023-02-25T12:15:59.204Z,26.17
2023-02-25T12:16:59.107Z,26.16
2023-02-25T12:17:59.023Z,26.14
2023-02-25T12:19:02.434Z,26.17
2023-02-25T12:19:58.915Z,26.17
2023-02-25T12:20:58.862Z,26.16
2023-02-25T12:21:58.799Z,26.16
2023-02-25T12:22:58.785Z,26.14
2023-02-25T12:23:58.684Z,26.13
2023-02-25T12:24:58.655Z,26.12
2023-02-25T12:25:58.559Z,26.13
2023-02-25T12:26:58.506Z,26.12
2023-02-25T12:27:58.448Z,26.13
2023-02-25T12:28:58.403Z,26.13
2023-02-25T12:29:58.349Z,26.13
2023-02-25T12:30:58.332Z,26.12
2023-02-25T12:31:58.393Z,26.12
2023-02-25T12:32:58.175Z,26.10
2023-02-25T12:33:58.124Z,26.12
2023-02-25T12:34:58.071Z,26.08
2023-02-25T12:35:58.016Z,26.10
2023-02-25T12:36:57.959Z,26.08
2023-02-25T12:37:57.917Z,26.06
2023-02-25T12:38:57.929Z,26.04
2023-02-25T12:39:57.789Z,26.06
2023-02-25T12:40:57.748Z,26.06
2023-02-25T12:41:57.703Z,26.06
2023-02-25T12:42:57.650Z,26.06
2023-02-25T12:43:57.594Z,26.06
2023-02-25T12:44:57.535Z,26.04
2023-02-25T12:45:57.546Z,26.06
2023-02-25T12:46:58.950Z,26.03
2023-02-25T12:47:57.459Z,26.04
2023-02-25T12:48:57.398Z,26.03
2023-02-25T12:49:57.349Z,26.04
2023-02-25T12:50:57.396Z,26.01
2023-02-25T12:51:57.252Z,26.03
2023-02-25T12:52:57.208Z,26.00
2023-02-25T12:53:57.155Z,26.03
2023-02-25T12:54:57.137Z,26.00
2023-02-25T12:55:57.084Z,26.00
2023-02-25T12:56:57.026Z,25.99
2023-02-25T12:57:56.965Z,25.99
2023-02-25T12:58:56.920Z,25.97
2023-02-25T12:59:56.861Z,26.00
2023-02-25T13:00:56.884Z,25.97
2023-02-25T13:01:56.769Z,25.97
2023-02-25T13:02:56.714Z,25.97
2023-02-25T13:03:56.726Z,25.97
2023-02-25T13:04:56.620Z,25.96
2023-02-25T13:05:56.576Z,25.95
2023-02-25T13:06:56.527Z,25.93
2023-02-25T13:07:56.480Z,25.95
2023-02-25T13:08:56.421Z,25.95
2023-02-25T13:09:56.381Z,25.95
2023-02-25T13:10:56.348Z,25.92
2023-02-25T13:12:12.658Z,25.93
2023-02-25T13:12:56.225Z,25.93
2023-02-25T13:13:56.173Z,25.93
2023-02-25T13:14:56.129Z,25.93
2023-02-25T13:15:56.083Z,25.90
2023-02-25T13:16:56.030Z,25.92
2023-02-25T13:17:55.996Z,25.90
2023-02-25T13:18:55.938Z,25.90
2023-02-25T13:19:55.908Z,25.92
2023-02-25T13:20:55.851Z,25.92
2023-02-25T13:21:55.808Z,25.89
2023-02-25T13:22:55.756Z,25.89
2023-02-25T13:23:55.718Z,25.89
2023-02-25T13:24:55.670Z,25.89
2023-02-25T13:25:55.625Z,25.89
2023-02-25T13:26:55.613Z,25.88
2023-02-25T13:27:55.539Z,25.89
2023-02-25T13:28:55.499Z,25.88
2023-02-25T13:29:55.442Z,25.88
2023-02-25T13:30:55.451Z,25.86
2023-02-25T13:31:55.531Z,25.88
2023-02-25T13:32:55.290Z,25.88
2023-02-25T13:33:55.251Z,25.86
2023-02-25T13:34:55.215Z,25.86
2023-02-25T13:35:55.165Z,25.89
2023-02-25T13:36:55.138Z,25.86
2023-02-25T13:37:55.091Z,25.86
2023-02-25T13:38:55.050Z,25.88
2023-02-25T13:39:55.013Z,25.88